Time;durP1;ratioP1;P1;durP2;ratioP2;P2;SDS_P1;SDS_P2;PMS_P1;PMS_P2;Temp;Humidity;BMP_temperature;BMP_pressure;BME280_temperature;BME280_humidity;BME280_pressure;Samples;Min_cycle;Max_cycle;Signal;HPM_P1;HPM_P2
2021/06/17 00:00:56;;;;;;;2.66;1.64;;;;;;;17.57;77.41;98827.03;2038277;77;45031;-73
2021/06/17 00:03:59;;;;;;;4.54;2.17;;;;;;;17.52;77.58;98828.09;2043725;79;20189;-72
2021/06/17 00:07:02;;;;;;;2.85;1.77;;;;;;;17.46;77.60;98825.72;2042650;79;20188;-73
2021/06/17 00:10:09;;;;;;;1.74;1.64;;;;;;;17.42;77.82;98826.78;2042596;79;20188;-73
2021/06/17 00:13:16;;;;;;;2.64;1.79;;;;;;;17.40;78.01;98827.72;2043143;79;20164;-73
2021/06/17 00:16:18;;;;;;;2.53;1.94;;;;;;;17.28;78.08;98820.38;2039568;77;26114;-73
2021/06/17 00:19:22;;;;;;;3.29;1.40;;;;;;;17.19;78.30;98822.44;2038306;79;20240;-73
2021/06/17 00:22:25;;;;;;;3.30;1.77;;;;;;;17.01;78.84;98824.94;2037712;79;20628;-71
2021/06/17 00:25:27;;;;;;;1.55;1.45;;;;;;;16.88;79.89;98814.97;2038127;79;20189;-72
2021/06/17 00:28:30;;;;;;;2.11;1.79;;;;;;;16.95;80.32;98812.94;2037902;79;20176;-72
2021/06/17 00:31:33;;;;;;;2.01;1.81;;;;;;;17.05;79.88;98802.94;2038669;79;20235;-73
2021/06/17 00:34:36;;;;;;;2.36;1.89;;;;;;;17.03;79.72;98796.88;2037552;79;20206;-72
2021/06/17 00:37:39;;;;;;;2.49;1.66;;;;;;;17.02;79.62;98782.06;2036751;79;20173;-71
2021/06/17 00:40:44;;;;;;;1.65;1.55;;;;;;;16.99;79.30;98785.66;2037413;79;20189;-71
2021/06/17 00:43:46;;;;;;;4.26;1.64;;;;;;;16.94;79.34;98782.38;2037271;79;20222;-71
2021/06/17 00:46:49;;;;;;;3.99;1.70;;;;;;;16.86;79.65;98782.69;2039517;76;20222;-72
2021/06/17 00:49:51;;;;;;;4.04;2.38;;;;;;;16.83;79.84;98779.31;2043721;79;20225;-71
2021/06/17 00:52:54;;;;;;;3.03;1.99;;;;;;;16.61;80.38;98782.75;2042066;79;20762;-71
2021/06/17 00:55:58;;;;;;;3.15;2.61;;;;;;;16.57;80.69;98777.69;2043350;79;20196;-71
2021/06/17 00:59:00;;;;;;;3.75;2.42;;;;;;;16.50;80.84;98778.84;2043560;79;20184;-73
2021/06/17 01:02:05;;;;;;;3.96;2.81;;;;;;;16.39;81.40;98771.41;2038410;76;21361;-73
2021/06/17 01:05:11;;;;;;;4.13;2.30;;;;;;;16.44;81.44;98773.84;2038540;79;20211;-73
2021/06/17 01:08:20;;;;;;;2.74;2.49;;;;;;;16.50;81.50;98768.34;2037263;79;20216;-72
2021/06/17 01:11:35;;;;;;;4.79;2.28;;;;;;;16.54;81.41;98770.81;2038575;79;20218;-73
2021/06/17 01:14:43;;;;;;;3.85;2.89;;;;;;;16.47;81.25;98763.22;2038763;79;20866;-72
2021/06/17 01:17:58;;;;;;;;;;;;;;;16.34;81.75;98773.34;2041744;78;20599;-73
2021/06/17 01:21:08;;;;;;;6.63;2.80;;;;;;;16.26;81.82;98773.63;2044220;79;20554;-73
2021/06/17 01:24:36;;;;;;;4.63;2.45;;;;;;;16.16;82.42;98772.25;2044104;79;20172;-73
2021/06/17 01:28:12;;;;;;;6.82;2.68;;;;;;;16.13;82.70;98785.44;2043284;79;20194;-74
2021/06/17 01:31:20;;;;;;;4.94;2.84;;;;;;;16.10;82.99;98788.19;2040232;79;20217;-73
2021/06/17 01:34:24;;;;;;;8.30;2.26;;;;;;;16.04;83.40;98790.19;2038884;79;21059;-73
2021/06/17 01:37:28;;;;;;;3.86;3.13;;;;;;;15.93;83.78;98803.66;2038607;79;20176;-73
2021/06/17 01:40:32;;;;;;;7.34;3.10;;;;;;;15.84;84.19;98812.69;2038420;79;20190;-73
2021/06/17 01:43:36;;;;;;;2.54;2.34;;;;;;;15.83;84.30;98810.13;2038628;79;20242;-73
2021/06/17 01:46:40;;;;;;;5.78;2.03;;;;;;;15.81;84.47;98815.44;2037843;79;20177;-71
2021/06/17 01:49:43;;;;;;;3.59;2.24;;;;;;;15.89;84.53;98823.84;2037719;79;20317;-73
2021/06/17 01:52:50;;;;;;;4.01;1.99;;;;;;;15.95;84.43;98828.88;2039418;79;20801;-73
2021/06/17 01:55:57;;;;;;;3.14;1.90;;;;;;;16.01;84.20;98838.28;2038263;79;20173;-73
2021/06/17 01:59:04;;;;;;;5.24;1.84;;;;;;;16.08;83.86;98845.00;2037838;79;20169;-74
2021/06/17 02:02:08;;;;;;;4.28;2.17;;;;;;;16.11;83.56;98846.66;2041029;76;52636;-73
2021/06/17 02:05:12;;;;;;;1.50;1.40;;;;;;;16.10;83.19;98851.03;2045077;79;20277;-73
2021/06/17 02:08:18;;;;;;;2.38;1.54;;;;;;;16.09;82.90;98846.72;2044609;79;20274;-73
2021/06/17 02:11:22;;;;;;;1.80;1.67;;;;;;;16.08;82.26;98839.78;2045126;79;20164;-74
2021/06/17 02:14:27;;;;;;;1.90;1.70;;;;;;;16.06;82.08;98845.97;2045621;78;20847;-73
2021/06/17 02:17:31;;;;;;;1.84;1.66;;;;;;;15.98;82.50;98860.22;2044656;77;20683;-73
2021/06/17 02:20:34;;;;;;;2.51;1.60;;;;;;;16.00;82.44;98857.53;2045298;79;20245;-73
2021/06/17 02:23:37;;;;;;;2.03;1.61;;;;;;;15.99;82.14;98846.19;2045023;79;20203;-72
2021/06/17 02:26:44;;;;;;;3.20;1.69;;;;;;;15.99;81.71;98840.97;2044695;79;20706;-74
2021/06/17 02:29:49;;;;;;;1.64;1.52;;;;;;;16.01;81.39;98843.53;2045212;79;20285;-73
2021/06/17 02:32:57;;;;;;;3.42;1.48;;;;;;;15.98;81.40;98839.25;2038735;77;20305;-73
2021/06/17 02:36:01;;;;;;;2.68;1.60;;;;;;;15.90;81.89;98824.72;2039096;79;20189;-72
2021/06/17 02:39:06;;;;;;;4.51;1.79;;;;;;;15.85;82.12;98818.78;2039514;79;20737;-73
2021/06/17 02:42:13;;;;;;;3.69;1.94;;;;;;;15.71;82.42;98829.72;2039285;79;20165;-73
2021/06/17 02:45:16;;;;;;;2.10;1.90;;;;;;;15.56;83.55;98840.66;2039242;79;20173;-74
2021/06/17 02:48:19;;;;;;;2.31;2.10;;;;;;;15.46;84.30;98840.13;2045396;78;22639;-73
2021/06/17 02:51:22;;;;;;;2.46;2.06;;;;;;;15.38;84.97;98850.84;2044415;79;20230;-73
2021/06/17 02:54:25;;;;;;;3.99;1.96;;;;;;;15.43;85.25;98858.53;2045688;79;20176;-73
2021/06/17 02:57:42;;;;;;;2.16;2.06;;;;;;;15.48;85.20;98854.03;2043951;79;20262;-73
2021/06/17 03:00:57;;;;;;;1.99;1.76;;;;;;;15.46;85.06;98866.31;2041925;77;22751;-74
2021/06/17 03:04:10;;;;;;;2.83;2.00;;;;;;;15.47;84.96;98865.41;2039032;79;20211;-73
2021/06/17 03:07:21;;;;;;;2.45;2.00;;;;;;;15.50;84.30;98856.59;2038396;79;20183;-73
2021/06/17 03:10:24;;;;;;;3.51;1.59;;;;;;;15.50;84.15;98860.06;2038456;79;20252;-73
2021/06/17 03:13:31;;;;;;;4.06;1.98;;;;;;;15.51;83.68;98843.44;2037999;79;21036;-74
2021/06/17 03:16:37;;;;;;;3.09;2.11;;;;;;;15.53;83.18;98853.88;2039652;77;20229;-73
2021/06/17 03:19:40;;;;;;;3.55;2.36;;;;;;;15.46;83.39;98845.38;2043922;78;20232;-73
2021/06/17 03:22:48;;;;;;;3.84;1.66;;;;;;;15.35;84.15;98848.31;2043517;79;20604;-74
2021/06/17 03:25:54;;;;;;;6.34;2.08;;;;;;;15.31;84.55;98853.72;2043975;79;20164;-73
2021/06/17 03:28:57;;;;;;;5.40;2.16;;;;;;;15.31;84.68;98846.72;2043526;79;20214;-76
2021/06/17 03:32:01;;;;;;;2.25;1.99;;;;;;;15.34;84.72;98851.84;2039289;79;22893;-73
2021/06/17 03:35:06;;;;;;;2.95;1.95;;;;;;;15.29;84.82;98843.31;2039228;79;20214;-73
2021/06/17 03:38:11;;;;;;;4.06;2.06;;;;;;;15.31;84.96;98845.88;2038059;79;21086;-73
2021/06/17 03:41:16;;;;;;;2.34;2.13;;;;;;;15.27;85.09;98839.88;2038761;79;20238;-73
2021/06/17 03:44:20;;;;;;;4.90;2.08;;;;;;;15.30;85.13;98838.94;2037567;79;20254;-73
2021/06/17 03:47:25;;;;;;;4.30;2.01;;;;;;;15.28;85.19;98840.75;2040178;77;21719;-73
2021/06/17 03:50:29;;;;;;;3.76;2.11;;;;;;;15.23;85.26;98842.63;2043792;79;20153;-73
2021/06/17 03:53:32;;;;;;;2.39;2.15;;;;;;;15.20;85.67;98845.34;2043598;79;20184;-73
2021/06/17 03:56:35;;;;;;;6.09;2.09;;;;;;;15.24;85.79;98844.34;2043061;79;20168;-73
2021/06/17 03:59:41;;;;;;;2.70;2.39;;;;;;;15.27;85.63;98841.66;2043789;79;20186;-73
2021/06/17 04:02:44;;;;;;;3.22;2.05;;;;;;;15.26;85.89;98845.13;2038427;76;25849;-73
2021/06/17 04:05:48;;;;;;;3.19;2.20;;;;;;;15.32;85.89;98844.97;2037822;79;20565;-74
2021/06/17 04:08:52;;;;;;;3.25;2.20;;;;;;;15.39;86.21;98849.06;2038447;79;20364;-76
2021/06/17 04:11:58;;;;;;;3.49;2.20;;;;;;;15.43;86.06;98846.31;2037926;79;20222;-73
2021/06/17 04:15:02;;;;;;;3.15;2.24;;;;;;;15.51;86.12;98853.06;2038041;79;20189;-73
2021/06/17 04:18:05;;;;;;;3.00;2.03;;;;;;;15.49;85.73;98847.88;2042097;76;20719;-73
2021/06/17 04:21:09;;;;;;;3.14;2.10;;;;;;;15.48;85.84;98848.78;2044043;79;20620;-73
2021/06/17 04:24:15;;;;;;;2.42;2.00;;;;;;;15.54;85.82;98851.19;2042998;79;20180;-73
2021/06/17 04:27:21;;;;;;;5.19;2.36;;;;;;;15.52;85.70;98860.00;2043719;79;20410;-72
2021/06/17 04:30:27;;;;;;;5.44;1.86;;;;;;;15.57;85.85;98858.09;2042020;77;24019;-74
2021/06/17 04:33:30;;;;;;;2.78;2.19;;;;;;;15.59;85.48;98857.16;2043831;79;20629;-73
2021/06/17 04:36:33;;;;;;;2.46;1.84;;;;;;;15.56;85.97;98864.22;2043062;79;20179;-73
2021/06/17 04:39:37;;;;;;;3.16;2.26;;;;;;;15.65;86.06;98861.34;2043336;79;20160;-73
2021/06/17 04:42:40;;;;;;;5.20;2.10;;;;;;;15.78;85.97;98865.25;2042313;79;20780;-73
2021/06/17 04:45:44;;;;;;;7.39;2.56;;;;;;;15.89;85.54;98859.66;2043933;77;21954;-73
2021/06/17 04:48:49;;;;;;;6.21;2.36;;;;;;;15.95;85.51;98857.66;2037789;79;20299;-73
2021/06/17 04:51:54;;;;;;;5.16;2.24;;;;;;;16.02;85.40;98871.41;2037895;79;20238;-73
2021/06/17 04:54:57;;;;;;;2.09;1.86;;;;;;;16.13;85.50;98900.69;2037285;79;20180;-73
2021/06/17 04:58:00;;;;;;;3.28;2.08;;;;;;;16.35;85.18;98892.97;2037404;79;20197;-73
2021/06/17 05:01:05;;;;;;;4.13;2.39;;;;;;;16.66;84.50;98903.16;2038415;76;21147;-73
2021/06/17 05:04:09;;;;;;;5.45;2.53;;;;;;;16.97;83.18;98907.31;2042573;79;20689;-73
2021/06/17 05:13:42;;;;;;;6.46;2.83;;;;;;;17.89;78.39;98910.63;2044398;79;20190;-74
2021/06/17 05:16:47;;;;;;;3.84;2.66;;;;;;;18.16;76.56;98929.63;2039596;79;21272;-75
2021/06/17 05:19:49;;;;;;;3.83;3.05;;;;;;;18.34;75.65;98925.38;2038141;79;20177;-74
2021/06/17 05:26:12;;;;;;;3.19;2.74;;;;;;;19.10;73.35;98919.31;2037153;70;20310;-73
2021/06/17 05:29:14;;;;;;;7.35;2.41;;;;;;;19.53;72.09;98925.16;1991267;81;20195;-74
2021/06/17 05:32:18;;;;;;;2.72;2.36;;;;;;;20.00;70.58;98914.09;1991165;79;26356;-73
2021/06/17 05:35:21;;;;;;;3.79;2.34;;;;;;;20.39;69.28;98912.06;1991967;81;20745;-74
2021/06/17 05:38:25;;;;;;;3.78;2.28;;;;;;;20.81;67.42;98913.38;1992108;81;20236;-73
2021/06/17 05:41:27;;;;;;;2.30;2.10;;;;;;;21.24;65.90;98908.41;1990842;81;20188;-74
2021/06/17 05:44:30;;;;;;;2.80;2.33;;;;;;;21.58;64.59;98912.69;2084340;70;20199;-74
2021/06/17 05:47:32;;;;;;;3.42;2.03;;;;;;;21.85;63.28;98899.66;1992258;78;20932;-73
2021/06/17 05:50:36;;;;;;;4.93;2.56;;;;;;;22.16;62.53;98899.59;1996332;81;20194;-76
2021/06/17 05:56:48;;;;;;;5.46;2.16;;;;;;;22.67;61.38;98892.09;1991118;81;20891;-75
2021/06/17 05:59:50;;;;;;;6.36;2.10;;;;;;;22.97;60.60;98889.34;1992613;81;20210;-75
2021/06/17 06:02:53;;;;;;;8.56;2.34;;;;;;;23.34;59.77;98887.88;1991619;78;20316;-73
2021/06/17 06:05:55;;;;;;;13.21;2.31;;;;;;;23.50;59.62;98919.50;1991655;81;20179;-74
2021/06/17 06:08:58;;;;;;;10.50;2.10;;;;;;;23.57;60.23;98944.72;1990633;81;20677;-75
2021/06/17 06:12:01;;;;;;;15.21;2.17;;;;;;;24.02;58.82;98950.59;1992740;81;20212;-75
2021/06/17 06:15:04;;;;;;;6.65;1.91;;;;;;;24.45;57.81;98943.28;1991871;81;20212;-74
2021/06/17 06:18:11;;;;;;;3.16;2.04;;;;;;;24.93;55.67;98940.81;1992172;79;24639;-75
2021/06/17 06:21:14;;;;;;;4.20;1.50;;;;;;;25.19;53.20;98952.31;1992342;81;20217;-74
2021/06/17 06:24:17;;;;;;;5.63;1.67;;;;;;;25.42;52.68;98953.31;1992831;81;20191;-74
2021/06/17 06:27:22;;;;;;;2.71;1.58;;;;;;;25.70;52.15;98957.50;1992716;81;20409;-75
2021/06/17 06:30:25;;;;;;;2.50;1.27;;;;;;;26.05;51.08;98949.56;1991645;81;20697;-74
2021/06/17 06:33:27;;;;;;;4.29;1.44;;;;;;;26.30;49.84;98951.22;1993120;81;20428;-74
2021/06/17 06:36:30;;;;;;;2.42;1.50;;;;;;;26.47;49.59;98943.69;1992522;81;20209;-77
2021/06/17 06:39:33;;;;;;;3.71;1.81;;;;;;;26.52;49.54;98945.97;1992690;81;20175;-76
2021/06/17 06:42:35;;;;;;;4.64;1.55;;;;;;;26.59;49.43;98960.53;1992741;81;20619;-73
2021/06/17 06:45:39;;;;;;;3.10;1.61;;;;;;;26.48;49.93;98958.69;1991501;78;20191;-73
2021/06/17 06:48:42;;;;;;;3.79;1.55;;;;;;;26.44;51.13;98951.91;1992563;81;20212;-74
2021/06/17 06:51:44;;;;;;;2.08;1.60;;;;;;;26.54;51.03;98956.50;1991867;81;20280;-73
2021/06/17 06:54:47;;;;;;;2.91;1.48;;;;;;;26.58;50.94;98952.66;1992098;81;20175;-77
2021/06/17 06:57:50;;;;;;;4.04;1.65;;;;;;;26.72;50.22;98953.28;1991998;81;20797;-74
2021/06/17 07:00:53;;;;;;;2.46;1.67;;;;;;;27.09;49.90;98948.59;1992069;78;20212;-73
2021/06/17 07:03:56;;;;;;;3.90;1.75;;;;;;;27.43;48.45;98937.03;2089268;70;20212;-72
2021/06/17 07:06:58;;;;;;;3.34;1.79;;;;;;;27.81;47.69;98928.59;1997226;81;20801;-72
2021/06/17 07:10:01;;;;;;;9.60;1.75;;;;;;;27.74;47.34;98940.78;1996316;81;20198;-72
2021/06/17 07:16:25;;;;;;;5.95;1.91;;;;;;;28.06;47.68;98927.44;2025306;70;21142;-72
2021/06/17 07:19:29;;;;;;;7.10;1.91;;;;;;;28.14;47.23;98959.66;1996643;81;20178;-72
2021/06/17 07:22:31;;;;;;;5.81;1.60;;;;;;;28.25;47.26;98956.94;1997142;81;20280;-73
2021/06/17 07:25:34;;;;;;;6.90;1.80;;;;;;;28.29;47.12;98969.09;1996498;81;20596;-73
2021/06/17 07:28:36;;;;;;;7.93;2.14;;;;;;;27.97;47.62;98963.72;1996969;81;20676;-73
2021/06/17 07:31:39;;;;;;;6.21;1.83;;;;;;;27.88;48.13;98956.50;1995628;79;23583;-74
2021/06/17 07:34:44;;;;;;;3.96;2.11;;;;;;;28.21;49.68;98948.34;1996795;81;20288;-74
2021/06/17 07:37:47;;;;;;;5.71;2.06;;;;;;;28.47;47.49;98948.84;1996759;81;20231;-73
2021/06/17 07:40:50;;;;;;;4.20;2.30;;;;;;;28.72;46.50;98954.75;1996722;81;20219;-72
2021/06/17 07:43:52;;;;;;;9.38;2.35;;;;;;;28.57;46.06;98959.59;1996128;81;20216;-75
2021/06/17 07:46:55;;;;;;;3.65;2.22;;;;;;;28.81;46.53;98948.63;1995203;78;22636;-72
2021/06/17 07:49:58;;;;;;;5.79;2.26;;;;;;;28.74;45.78;98955.47;1996135;81;20174;-72
2021/06/17 07:53:00;;;;;;;8.85;2.20;;;;;;;28.83;46.04;98957.34;1996131;81;20310;-71
2021/06/17 07:56:04;;;;;;;4.31;2.34;;;;;;;29.17;45.71;98948.09;1996457;81;20170;-71
2021/06/17 07:59:06;;;;;;;7.18;1.98;;;;;;;29.45;45.33;98948.34;1995627;81;20162;-71
2021/06/17 08:02:09;;;;;;;4.36;2.00;;;;;;;29.61;44.76;98953.16;1994850;79;21879;-71
2021/06/17 08:05:12;;;;;;;4.30;2.24;;;;;;;29.78;44.39;98952.50;2092728;70;20210;-72
2021/06/17 08:08:16;;;;;;;2.71;2.11;;;;;;;29.81;44.33;98946.88;1994282;81;20190;-73
2021/06/17 08:11:19;;;;;;;7.46;2.50;;;;;;;29.71;44.79;98943.34;1994210;81;20253;-73
2021/06/17 08:14:32;;;;;;;12.41;2.45;;;;;;;29.88;44.47;98950.69;1998526;81;20255;-73
2021/06/17 08:17:35;;;;;;;5.82;2.28;;;;;;;30.07;44.06;98949.88;2003862;78;21285;-72
2021/06/17 08:20:38;;;;;;;6.25;2.19;;;;;;;30.29;43.26;98946.91;2005446;80;20181;-72
2021/06/17 08:27:01;;;;;;;3.99;2.40;;;;;;;30.56;41.89;98951.53;2004645;70;21071;-72
2021/06/17 08:30:06;;;;;;;4.03;1.92;;;;;;;30.38;42.20;98955.94;1989926;81;20163;-73
2021/06/17 08:33:09;;;;;;;2.63;2.20;;;;;;;30.41;43.63;98955.63;1990405;79;20366;-73
2021/06/17 08:36:11;;;;;;;8.68;2.58;;;;;;;30.31;43.45;98947.59;1990272;81;20179;-73
2021/06/17 08:39:14;;;;;;;4.07;2.06;;;;;;;30.49;42.73;98944.19;1991131;81;20215;-73
2021/06/17 08:42:16;;;;;;;3.55;2.22;;;;;;;30.66;43.36;98947.00;1990699;81;20187;-73
2021/06/17 08:45:19;;;;;;;10.51;2.81;;;;;;;30.63;42.56;98947.28;1990376;81;20251;-73
2021/06/17 08:48:22;;;;;;;6.95;2.34;;;;;;;30.46;42.99;98939.97;1997155;81;20574;-73
2021/06/17 08:51:26;;;;;;;5.09;2.41;;;;;;;30.81;43.07;98930.47;1993623;81;20170;-73
2021/06/17 08:54:32;;;;;;;6.32;2.15;;;;;;;31.10;42.11;98933.03;1995792;81;20183;-73
2021/06/17 08:57:35;;;;;;;5.18;2.40;;;;;;;31.23;42.26;98939.75;1994814;81;20198;-73
2021/06/17 09:00:48;;;;;;;6.74;2.45;;;;;;;31.21;41.52;98939.06;1992821;78;25550;-73
2021/06/17 09:03:52;;;;;;;4.20;2.22;;;;;;;31.28;41.89;98950.06;1990835;81;20202;-74
2021/06/17 09:07:09;;;;;;;3.64;2.51;;;;;;;31.20;42.27;98966.88;1990697;81;21105;-74
2021/06/17 09:10:12;;;;;;;6.02;2.38;;;;;;;31.16;41.36;98961.94;1990624;81;20979;-74
2021/06/17 09:13:14;;;;;;;6.89;2.58;;;;;;;31.13;42.12;98960.41;1990776;81;20171;-75
2021/06/17 09:16:23;;;;;;;7.35;2.63;;;;;;;31.07;42.57;98960.16;1991716;79;27769;-72
2021/06/17 09:19:49;;;;;;;6.82;2.78;;;;;;;31.24;42.93;98957.56;1995452;81;20198;-75
2021/06/17 09:22:52;;;;;;;8.60;2.41;;;;;;;31.47;41.51;98958.00;1995826;81;20182;-75
2021/06/17 09:26:00;;;;;;;6.13;2.78;;;;;;;31.36;41.31;98958.19;1994996;81;20178;-72
2021/06/17 09:29:05;;;;;;;5.25;2.67;;;;;;;31.66;41.67;98972.31;1999011;81;20227;-72
2021/06/17 09:32:21;;;;;;;4.57;2.71;;;;;;;31.53;41.97;98961.94;1991540;81;21212;-73
2021/06/17 09:35:30;;;;;;;8.49;2.63;;;;;;;31.49;41.74;98965.91;1991356;81;20287;-72
2021/06/17 09:38:43;;;;;;;5.93;2.40;;;;;;;31.43;42.60;98975.41;1991183;81;20203;-72
2021/06/17 09:41:49;;;;;;;2.88;2.36;;;;;;;31.72;42.48;98966.31;1991069;81;20686;-73
2021/06/17 09:44:54;;;;;;;4.00;2.40;;;;;;;31.60;41.57;98973.78;1991298;81;20254;-73
2021/06/17 09:47:57;;;;;;;6.04;2.69;;;;;;;31.66;42.60;98970.47;1995239;78;21247;-73
2021/06/17 09:51:30;;;;;;;5.68;2.91;;;;;;;31.99;42.56;98968.16;1995893;81;20236;-72
2021/06/17 09:54:33;;;;;;;4.38;2.74;;;;;;;32.38;42.09;98979.47;1996541;81;20174;-72
2021/06/17 09:57:39;;;;;;;3.31;2.53;;;;;;;32.59;41.65;98971.03;1995683;81;20186;-72
2021/06/17 10:01:01;;;;;;;3.00;2.45;;;;;;;32.84;40.38;98972.91;1994080;79;21869;-73
2021/06/17 10:04:07;;;;;;;6.97;2.65;;;;;;;32.92;40.43;98970.28;1991010;81;20713;-71
2021/06/17 10:07:10;;;;;;;4.69;3.15;;;;;;;32.68;39.42;98978.19;1991298;81;20175;-71
2021/06/17 10:10:15;;;;;;;4.51;2.60;;;;;;;32.28;40.80;98970.63;1991277;81;20175;-70
2021/06/17 10:13:25;;;;;;;8.13;2.41;;;;;;;32.53;40.96;98974.38;1990866;81;20217;-71
2021/06/17 10:16:28;;;;;;;4.39;2.55;;;;;;;32.34;41.19;98968.19;1992636;79;22741;-70
2021/06/17 10:19:32;;;;;;;5.13;2.47;;;;;;;32.47;40.71;98965.91;1996187;81;20186;-71
2021/06/17 10:22:39;;;;;;;5.40;2.55;;;;;;;32.17;41.55;98971.69;1996145;81;20194;-72
2021/06/17 10:25:43;;;;;;;3.56;2.44;;;;;;;31.85;41.40;98966.84;1995575;81;20228;-73
2021/06/17 10:28:51;;;;;;;8.16;2.69;;;;;;;31.68;42.18;98962.25;1995751;81;20191;-72
2021/06/17 10:31:58;;;;;;;4.36;2.64;;;;;;;32.04;42.45;98968.53;1995042;81;20196;-70
2021/06/17 10:35:02;;;;;;;4.69;2.28;;;;;;;32.41;41.84;98963.84;1996703;81;20717;-71
2021/06/17 10:38:08;;;;;;;5.21;2.69;;;;;;;32.86;41.07;98962.88;1995771;81;20379;-80
2021/06/17 10:41:14;;;;;;;4.85;2.91;;;;;;;33.05;40.54;98969.88;1996036;81;20720;-75
2021/06/17 10:44:37;;;;;;;3.17;2.26;;;;;;;32.65;40.30;98962.34;1995528;81;20641;-74
2021/06/17 10:47:46;;;;;;;3.69;2.60;;;;;;;32.69;41.28;98966.41;1991061;78;22308;-74
2021/06/17 10:50:52;;;;;;;4.82;2.60;;;;;;;32.71;39.34;98967.09;1990984;81;20663;-73
2021/06/17 10:53:55;;;;;;;3.14;2.40;;;;;;;32.61;39.97;98964.50;1991424;81;20205;-73
2021/06/17 10:56:58;;;;;;;6.40;2.33;;;;;;;32.34;40.97;98961.97;1991369;81;20191;-73
2021/06/17 11:00:24;;;;;;;4.94;2.44;;;;;;;32.34;41.86;98959.28;1990982;81;20185;-72
2021/06/17 11:03:37;;;;;;;5.57;2.28;;;;;;;32.44;40.58;98957.31;1986200;81;20207;-73
2021/06/17 11:07:02;;;;;;;3.41;2.25;;;;;;;32.46;39.87;98960.69;1986192;81;20172;-72
2021/06/17 11:10:06;;;;;;;6.15;2.01;;;;;;;32.76;40.37;98951.34;1982473;81;20211;-73
2021/06/17 11:13:26;;;;;;;3.65;2.26;;;;;;;33.13;39.62;98947.53;1986868;81;20199;-73
2021/06/17 11:16:30;;;;;;;4.78;2.40;;;;;;;33.48;38.08;98947.34;1989519;79;21098;-73
2021/06/17 11:20:04;;;;;;;4.25;2.45;;;;;;;33.60;38.25;98943.38;1995037;81;20222;-73
2021/06/17 11:23:07;;;;;;;2.88;2.35;;;;;;;33.50;39.10;98936.44;1995954;81;20166;-72
2021/06/17 11:26:10;;;;;;;7.22;2.45;;;;;;;33.78;37.96;98931.63;1995105;81;20174;-74
2021/06/17 11:29:35;;;;;;;3.65;1.99;;;;;;;33.99;37.67;98932.00;1996094;81;20280;-74
2021/06/17 11:32:38;;;;;;;6.09;2.00;;;;;;;34.18;36.71;98934.38;1990438;79;20684;-73
2021/06/17 11:35:42;;;;;;;6.85;2.10;;;;;;;34.34;36.05;98932.69;1990453;81;20197;-73
2021/06/17 11:38:47;;;;;;;2.60;2.40;;;;;;;34.32;36.10;98932.88;1990953;81;20370;-73
2021/06/17 11:42:19;;;;;;;2.79;2.04;;;;;;;34.27;34.66;98931.66;1990054;81;20301;-71
2021/06/17 11:45:30;;;;;;;3.90;2.05;;;;;;;34.41;35.43;98937.25;1990770;78;22289;-72
2021/06/17 11:48:33;;;;;;;2.76;2.06;;;;;;;34.56;35.60;98933.88;1994810;81;20206;-72
2021/06/17 11:51:41;;;;;;;6.01;2.11;;;;;;;34.32;35.77;98938.25;1995552;81;20199;-72
2021/06/17 11:54:44;;;;;;;6.89;2.13;;;;;;;34.36;35.64;98931.53;1995065;81;20632;-72
2021/06/17 11:57:47;;;;;;;13.29;2.61;;;;;;;34.33;35.36;98945.34;1998547;81;20187;-72
2021/06/17 12:00:51;;;;;;;3.96;2.00;;;;;;;34.19;36.53;98941.44;1993245;78;20228;-73
2021/06/17 12:04:01;;;;;;;4.11;2.28;;;;;;;34.27;36.58;98943.28;1990189;81;20171;-72
2021/06/17 12:07:04;;;;;;;5.38;2.29;;;;;;;34.24;34.94;98940.94;1990022;81;20219;-72
2021/06/17 12:10:23;;;;;;;4.15;1.94;;;;;;;34.05;36.14;98944.81;1989839;81;20320;-72
2021/06/17 12:13:28;;;;;;;6.53;2.31;;;;;;;34.31;35.02;98947.34;1990646;81;20193;-71
2021/06/17 12:16:31;;;;;;;4.86;2.19;;;;;;;34.34;34.85;98940.78;1991885;78;20693;-72
2021/06/17 12:19:34;;;;;;;3.06;2.69;;;;;;;34.48;35.17;98932.88;1995672;81;20221;-74
2021/06/17 12:22:40;;;;;;;9.31;1.96;;;;;;;34.48;35.21;98945.53;1994331;81;20752;-73
2021/06/17 12:25:56;;;;;;;7.18;2.33;;;;;;;34.04;35.06;98932.34;2089524;70;20242;-72
2021/06/17 12:29:09;;;;;;;8.24;2.10;;;;;;;34.24;35.83;98930.16;1990812;81;20196;-71
2021/06/17 12:32:13;;;;;;;3.42;2.19;;;;;;;34.14;36.13;98927.66;1993595;78;25674;-71
2021/06/17 12:35:17;;;;;;;2.51;1.66;;;;;;;33.81;36.15;98923.19;1997361;81;20209;-71
2021/06/17 12:38:32;;;;;;;5.82;2.40;;;;;;;34.00;36.66;98927.47;2001115;81;20301;-71
2021/06/17 12:41:43;;;;;;;8.15;2.25;;;;;;;34.18;35.04;98929.00;2000897;81;20185;-72
2021/06/17 12:44:46;;;;;;;4.16;1.99;;;;;;;34.17;35.16;98919.22;2000329;81;20255;-72
2021/06/17 12:47:49;;;;;;;3.80;2.09;;;;;;;34.26;36.21;98922.75;1994823;78;20198;-75
2021/06/17 12:54:22;;;;;;;4.69;1.84;;;;;;;34.41;36.10;98906.75;1995587;81;20171;-71
2021/06/17 12:57:27;;;;;;;7.15;2.17;;;;;;;34.67;34.44;98909.25;1995746;81;20776;-71
2021/06/17 13:00:29;;;;;;;7.19;1.90;;;;;;;34.59;34.35;98898.47;1993274;79;20380;-72
2021/06/17 13:03:32;;;;;;;4.35;2.17;;;;;;;34.53;33.92;98908.09;1998673;81;20174;-72
2021/06/17 13:06:37;;;;;;;5.31;2.04;;;;;;;34.62;34.50;98901.66;1999850;81;20205;-71
2021/06/17 13:09:40;;;;;;;4.01;1.73;;;;;;;34.79;33.55;98903.28;1999972;81;20217;-70
2021/06/17 13:12:43;;;;;;;6.16;2.01;;;;;;;34.96;32.79;98903.28;2001200;81;20181;-71
2021/06/17 13:15:49;;;;;;;3.76;1.98;;;;;;;34.72;33.25;98901.47;1999974;81;20683;-71
2021/06/17 13:18:55;;;;;;;4.43;1.84;;;;;;;34.46;34.36;98901.69;1995836;81;20576;-72
2021/06/17 13:22:04;;;;;;;4.64;1.92;;;;;;;34.77;33.56;98899.94;1996372;81;20235;-73
2021/06/17 13:25:07;;;;;;;4.79;2.39;;;;;;;34.88;34.44;98903.31;1996409;81;20240;-72
2021/06/17 13:28:40;;;;;;;4.69;1.86;;;;;;;34.83;32.53;98884.91;1995991;81;20218;-73
2021/06/17 13:31:43;;;;;;;7.06;1.81;;;;;;;34.49;33.29;98891.41;1997836;78;57650;-72
2021/06/17 13:34:46;;;;;;;6.24;1.79;;;;;;;34.68;33.87;98887.50;2001684;81;20262;-72
2021/06/17 13:37:49;;;;;;;4.32;1.77;;;;;;;34.97;34.61;98884.22;2000861;81;20211;-72
2021/06/17 13:41:11;;;;;;;6.01;1.61;;;;;;;35.10;33.71;98889.91;2000894;81;20214;-72
2021/06/17 13:44:15;;;;;;;6.25;1.85;;;;;;;35.19;33.72;98885.31;2001553;81;20177;-72
2021/06/17 13:47:18;;;;;;;3.47;1.99;;;;;;;35.27;32.57;98881.72;1996734;78;20186;-72
2021/06/17 13:50:24;;;;;;;5.55;1.69;;;;;;;35.41;33.18;98878.31;1996648;81;20238;-72
2021/06/17 13:53:26;;;;;;;2.53;1.67;;;;;;;35.52;33.22;98874.34;1996139;81;20190;-72
2021/06/17 13:56:29;;;;;;;6.01;2.04;;;;;;;35.35;32.02;98876.28;1995642;81;20191;-74
2021/06/17 13:59:38;;;;;;;7.18;1.90;;;;;;;35.04;31.96;98877.13;1996499;81;20218;-72
2021/06/17 14:02:45;;;;;;;4.82;1.81;;;;;;;34.70;32.34;98873.84;1999817;78;21756;-72
2021/06/17 14:05:48;;;;;;;5.24;1.86;;;;;;;34.87;31.71;98872.81;2001468;81;20178;-72
2021/06/17 14:08:50;;;;;;;6.60;2.20;;;;;;;35.09;32.05;98869.31;2001092;81;20204;-72
2021/06/17 14:11:53;;;;;;;6.36;2.10;;;;;;;35.07;30.11;98873.22;2000862;81;20177;-72
2021/06/17 14:14:58;;;;;;;7.91;1.94;;;;;;;34.78;31.12;98876.50;2001366;81;20215;-72
2021/06/17 14:18:01;;;;;;;5.24;1.61;;;;;;;34.97;31.85;98877.97;2000315;78;20868;-72
2021/06/17 14:21:04;;;;;;;4.63;1.70;;;;;;;34.91;31.75;98876.81;2001469;81;20500;-72
2021/06/17 14:24:07;;;;;;;6.95;1.92;;;;;;;34.75;30.87;98879.53;2001043;81;20290;-74
2021/06/17 14:27:10;;;;;;;4.28;2.10;;;;;;;34.63;30.89;98872.81;2000782;81;20632;-72
2021/06/17 14:30:13;;;;;;;2.75;1.69;;;;;;;34.60;31.22;98871.31;1999860;81;20816;-72
2021/06/17 14:33:16;;;;;;;8.82;1.90;;;;;;;34.62;31.55;98871.16;1995987;78;20202;-72
2021/06/17 14:36:19;;;;;;;9.09;1.80;;;;;;;34.61;31.64;98870.31;1995568;81;20678;-74
2021/06/17 14:39:22;;;;;;;2.92;1.95;;;;;;;34.29;28.19;98867.63;1996112;81;20303;-74
2021/06/17 14:42:25;;;;;;;2.95;1.73;;;;;;;34.51;29.65;98856.19;1995967;81;20174;-72
2021/06/17 14:45:28;;;;;;;5.06;1.81;;;;;;;34.82;30.74;98858.94;1996036;79;21142;-75
2021/06/17 14:48:31;;;;;;;5.31;1.79;;;;;;;34.40;29.90;98852.00;2001210;81;20198;-74
2021/06/17 14:51:34;;;;;;;3.63;1.49;;;;;;;34.45;31.38;98846.06;2001218;81;20298;-73
2021/06/17 14:54:37;;;;;;;3.41;1.84;;;;;;;34.68;30.95;98841.66;2000638;81;20237;-73
2021/06/17 14:57:41;;;;;;;4.19;1.59;;;;;;;34.47;30.39;98846.72;2001029;81;20865;-74